Time;durP1;ratioP1;P1;durP2;ratioP2;P2;SDS_P1;SDS_P2;PMS_P1;PMS_P2;Temp;Humidity;BMP_temperature;BMP_pressure;BME280_temperature;BME280_humidity;BME280_pressure;Samples;Min_cycle;Max_cycle;Signal;HPM_P1;HPM_P2
2021/09/02 00:02:21;;;;;;;8.73;8.03;;;11.10;99.90;;;;;;4992358;28;20644;-89
2021/09/02 00:04:47;;;;;;;8.60;7.90;;;11.10;99.90;;;;;;4985685;28;20637;-89
2021/09/02 00:07:14;;;;;;;9.07;7.73;;;11.10;99.90;;;;;;4986601;28;20644;-88
2021/09/02 00:09:41;;;;;;;8.80;7.97;;;11.10;99.90;;;;;;4992378;28;20641;-88
2021/09/02 00:12:08;;;;;;;8.03;7.43;;;11.10;99.90;;;;;;4988602;28;20636;-88
2021/09/02 00:14:36;;;;;;;9.27;8.50;;;11.00;99.90;;;;;;4991879;28;20665;-88
2021/09/02 00:17:05;;;;;;;9.00;8.30;;;11.00;99.90;;;;;;4982497;28;20766;-87
2021/09/02 00:19:31;;;;;;;8.43;7.63;;;11.00;99.90;;;;;;4985448;28;20998;-89
2021/09/02 00:21:58;;;;;;;9.00;8.20;;;11.00;99.90;;;;;;4993520;28;20963;-88
2021/09/02 00:24:25;;;;;;;12.13;8.53;;;11.00;99.90;;;;;;4990415;28;20620;-88
2021/09/02 00:26:52;;;;;;;8.43;7.63;;;11.00;99.90;;;;;;4997271;28;21204;-89
2021/09/02 00:29:18;;;;;;;9.27;8.47;;;11.00;99.90;;;;;;4990813;28;20631;-88
2021/09/02 00:31:45;;;;;;;8.67;7.97;;;11.00;99.90;;;;;;4991061;28;21192;-88
2021/09/02 00:34:14;;;;;;;8.30;7.60;;;11.00;99.90;;;;;;4992183;28;20660;-88
2021/09/02 00:36:41;;;;;;;10.03;7.90;;;11.00;99.90;;;;;;4982910;28;20648;-88
2021/09/02 00:39:07;;;;;;;8.13;7.53;;;10.90;99.90;;;;;;4992339;28;20619;-88
2021/09/02 00:41:34;;;;;;;9.03;8.30;;;10.90;99.90;;;;;;4971297;28;20652;-88
2021/09/02 00:44:01;;;;;;;8.30;7.60;;;10.90;99.90;;;;;;4990953;28;20619;-88
2021/09/02 00:46:28;;;;;;;9.20;8.50;;;10.90;99.90;;;;;;4989641;28;21004;-88
2021/09/02 00:48:55;;;;;;;9.07;8.27;;;10.90;99.90;;;;;;4994404;28;20634;-88
2021/09/02 00:51:23;;;;;;;8.77;8.17;;;10.90;99.90;;;;;;4999627;28;21209;-87
2021/09/02 00:53:52;;;;;;;9.60;8.80;;;10.90;99.90;;;;;;4988705;28;20629;-88
2021/09/02 00:56:20;;;;;;;8.77;8.07;;;11.00;99.90;;;;;;4995680;28;20629;-89
2021/09/02 00:58:48;;;;;;;8.63;7.83;;;10.90;99.90;;;;;;4994382;28;20647;-88
2021/09/02 01:01:17;;;;;;;8.13;7.63;;;10.80;99.90;;;;;;4976067;28;20668;-88
2021/09/02 01:03:45;;;;;;;8.17;7.50;;;10.80;99.90;;;;;;4990847;28;20633;-87
2021/09/02 01:06:12;;;;;;;9.30;8.60;;;10.80;99.90;;;;;;4994043;28;21197;-88
2021/09/02 01:08:40;;;;;;;9.13;8.30;;;10.80;99.90;;;;;;4986918;28;20637;-88
2021/09/02 01:11:07;;;;;;;8.77;7.90;;;10.80;99.90;;;;;;4990271;28;20652;-88
2021/09/02 01:13:34;;;;;;;9.50;8.37;;;10.80;99.90;;;;;;4992882;28;20631;-88
2021/09/02 01:16:00;;;;;;;8.60;8.00;;;10.70;99.90;;;;;;4988999;28;20678;-88
2021/09/02 01:18:27;;;;;;;8.10;7.23;;;10.70;99.90;;;;;;4996484;28;21213;-88
2021/09/02 01:20:54;;;;;;;8.87;8.17;;;10.70;99.90;;;;;;4995414;28;20646;-88
2021/09/02 01:23:22;;;;;;;8.77;8.07;;;10.60;99.90;;;;;;4993996;28;20640;-87
2021/09/02 01:25:50;;;;;;;9.93;8.97;;;10.70;99.90;;;;;;4997878;28;20620;-87
2021/09/02 01:28:17;;;;;;;8.73;7.80;;;10.70;99.90;;;;;;4978159;28;20624;-88
2021/09/02 01:30:44;;;;;;;8.30;7.70;;;10.70;99.90;;;;;;4995207;28;20668;-89
2021/09/02 01:33:13;;;;;;;8.60;7.80;;;10.60;99.90;;;;;;4983811;28;20615;-89
2021/09/02 01:35:42;;;;;;;8.50;7.80;;;10.60;99.90;;;;;;4990575;28;20673;-89
2021/09/02 01:38:11;;;;;;;9.37;8.57;;;10.50;99.90;;;;;;4993798;28;20613;-89
2021/09/02 01:40:41;;;;;;;9.27;8.53;;;10.50;99.90;;;;;;4985990;28;20766;-89
2021/09/02 01:43:09;;;;;;;9.30;8.60;;;10.50;99.90;;;;;;5000931;28;20624;-88
2021/09/02 01:45:37;;;;;;;10.60;9.80;;;10.40;99.90;;;;;;5002328;28;20940;-89
2021/09/02 01:48:05;;;;;;;10.93;9.93;;;10.40;99.90;;;;;;4996941;28;20628;-89
2021/09/02 01:50:34;;;;;;;11.83;10.83;;;10.50;99.90;;;;;;4995515;28;20656;-89
2021/09/02 01:53:08;;;;;;;11.50;10.50;;;10.50;99.90;;;;;;4994558;28;20619;-89
2021/09/02 01:55:35;;;;;;;11.73;10.80;;;10.50;99.90;;;;;;4989370;28;21273;-88
2021/09/02 01:58:04;;;;;;;12.40;11.40;;;10.40;99.90;;;;;;4996251;28;20647;-88
2021/09/02 02:00:31;;;;;;;11.53;10.43;;;10.30;99.90;;;;;;4993098;28;20663;-89
2021/09/02 02:02:58;;;;;;;11.10;10.20;;;10.30;99.90;;;;;;4992237;28;20646;-88
2021/09/02 02:05:25;;;;;;;11.67;10.53;;;10.20;99.90;;;;;;4993206;28;20636;-89
2021/09/02 02:07:52;;;;;;;10.17;9.30;;;10.20;99.90;;;;;;4992526;28;20612;-89
2021/09/02 02:10:22;;;;;;;11.60;10.67;;;10.20;99.90;;;;;;4993858;28;20640;-89
2021/09/02 02:12:49;;;;;;;11.97;10.97;;;10.30;99.90;;;;;;5000703;28;21237;-88
2021/09/02 02:15:17;;;;;;;12.00;10.90;;;10.30;99.90;;;;;;4992298;28;21186;-89
2021/09/02 02:17:44;;;;;;;10.77;9.93;;;10.20;99.90;;;;;;4989969;28;20659;-88
2021/09/02 02:20:12;;;;;;;11.63;10.70;;;10.20;99.90;;;;;;4994640;28;20656;-88
2021/09/02 02:22:40;;;;;;;10.80;9.73;;;10.10;99.90;;;;;;4989402;28;21300;-89
2021/09/02 02:25:09;;;;;;;10.93;10.03;;;10.10;99.90;;;;;;4982403;28;20624;-89
2021/09/02 02:27:36;;;;;;;12.30;10.83;;;10.10;99.90;;;;;;4990572;28;20626;-88
2021/09/02 02:30:04;;;;;;;10.60;9.70;;;10.20;99.90;;;;;;4994305;28;20659;-89
2021/09/02 02:32:33;;;;;;;9.83;9.07;;;10.20;99.90;;;;;;4990743;28;20642;-88
2021/09/02 02:35:00;;;;;;;10.80;10.00;;;10.10;99.90;;;;;;4986743;28;20673;-88
2021/09/02 02:37:27;;;;;;;11.60;9.53;;;10.10;99.90;;;;;;4971153;28;20634;-88
2021/09/02 02:39:53;;;;;;;11.10;10.10;;;10.00;99.90;;;;;;4989485;28;20662;-88
2021/09/02 02:42:20;;;;;;;9.53;8.83;;;10.10;99.90;;;;;;4991235;28;20616;-88
2021/09/02 02:44:47;;;;;;;10.20;9.40;;;10.10;99.90;;;;;;4987336;28;20629;-88
2021/09/02 02:47:14;;;;;;;9.27;8.60;;;10.00;99.90;;;;;;4982120;28;20639;-88
2021/09/02 02:49:44;;;;;;;10.10;9.30;;;10.00;99.90;;;;;;4981861;28;20683;-88
2021/09/02 02:52:11;;;;;;;10.50;9.60;;;10.00;99.90;;;;;;4990005;28;20705;-88
2021/09/02 02:54:38;;;;;;;10.40;9.53;;;10.10;99.90;;;;;;4987438;28;20922;-88
2021/09/02 02:57:05;;;;;;;9.87;8.97;;;10.00;99.90;;;;;;4990316;28;20646;-89
2021/09/02 02:59:32;;;;;;;10.70;9.80;;;10.00;99.90;;;;;;4987328;28;20657;-88
2021/09/02 03:01:59;;;;;;;9.87;9.00;;;9.90;99.90;;;;;;4987741;28;20624;-89
2021/09/02 03:04:26;;;;;;;9.93;9.13;;;9.90;99.90;;;;;;4992407;28;20757;-87
2021/09/02 03:06:54;;;;;;;9.87;9.07;;;9.90;99.90;;;;;;4992532;28;20634;-89
2021/09/02 03:09:21;;;;;;;10.27;9.43;;;9.90;99.90;;;;;;4993137;28;20643;-87
2021/09/02 03:11:48;;;;;;;11.33;9.93;;;9.90;99.90;;;;;;4989365;28;20648;-88
2021/09/02 03:14:14;;;;;;;10.73;9.83;;;9.90;99.90;;;;;;4997619;28;20643;-89
2021/09/02 03:16:41;;;;;;;10.20;9.30;;;9.90;99.90;;;;;;4990600;28;20661;-88
2021/09/02 03:19:08;;;;;;;10.83;9.93;;;9.80;99.90;;;;;;4998603;28;20635;-89
2021/09/02 03:21:35;;;;;;;10.77;9.67;;;9.70;99.90;;;;;;4993536;28;21013;-89
2021/09/02 03:24:03;;;;;;;11.67;10.80;;;9.70;99.90;;;;;;4995554;28;20632;-88
2021/09/02 03:26:30;;;;;;;12.83;11.77;;;9.80;99.90;;;;;;4985699;28;20644;-88
2021/09/02 03:28:57;;;;;;;11.70;10.70;;;9.70;99.90;;;;;;4992824;28;20636;-89
2021/09/02 03:31:24;;;;;;;10.87;10.07;;;9.80;99.90;;;;;;4991753;28;20671;-89
2021/09/02 03:33:50;;;;;;;12.43;11.43;;;9.70;99.90;;;;;;4990095;28;20656;-90
2021/09/02 03:36:18;;;;;;;13.20;11.90;;;9.70;99.90;;;;;;4992768;28;20702;-88
2021/09/02 03:38:44;;;;;;;13.27;12.27;;;9.70;99.90;;;;;;4987740;28;21018;-88
2021/09/02 03:41:13;;;;;;;11.87;10.97;;;9.70;99.90;;;;;;4987707;28;20649;-89
2021/09/02 03:43:40;;;;;;;12.67;11.67;;;9.70;99.90;;;;;;4977514;28;20731;-89
2021/09/02 03:46:06;;;;;;;11.70;10.67;;;9.60;99.90;;;;;;4997254;28;20625;-89
2021/09/02 03:48:33;;;;;;;14.00;12.80;;;9.60;99.90;;;;;;4995575;28;20639;-89
2021/09/02 03:51:00;;;;;;;12.57;11.53;;;9.70;99.90;;;;;;4989504;28;20659;-89
2021/09/02 03:53:27;;;;;;;12.20;11.23;;;9.60;99.90;;;;;;4990222;28;20620;-89
2021/09/02 03:55:54;;;;;;;13.23;11.97;;;9.50;99.90;;;;;;4995135;28;20656;-89
2021/09/02 03:58:22;;;;;;;13.13;12.00;;;9.50;99.90;;;;;;4986403;28;20628;-89
2021/09/02 04:00:48;;;;;;;13.57;12.27;;;9.50;99.90;;;;;;4994197;28;21414;-88
2021/09/02 04:03:15;;;;;;;15.00;13.90;;;9.50;99.90;;;;;;4995285;28;20623;-89
2021/09/02 04:05:42;;;;;;;14.40;13.27;;;9.50;99.90;;;;;;4992956;28;20633;-88
2021/09/02 04:08:10;;;;;;;15.10;13.77;;;9.60;99.90;;;;;;4990456;28;20628;-88
2021/09/02 04:10:37;;;;;;;15.43;14.13;;;9.50;99.90;;;;;;4988403;28;20667;-88
2021/09/02 04:13:04;;;;;;;19.23;14.20;;;9.60;99.90;;;;;;4980930;28;20627;-88
2021/09/02 04:15:32;;;;;;;14.63;13.33;;;9.60;99.90;;;;;;4990604;28;20671;-89
2021/09/02 04:17:59;;;;;;;13.27;12.17;;;9.50;99.90;;;;;;4976521;28;20958;-89
2021/09/02 04:20:26;;;;;;;15.10;13.90;;;9.40;99.90;;;;;;4986373;28;20664;-88
2021/09/02 04:22:53;;;;;;;15.53;14.27;;;9.40;99.90;;;;;;4993713;28;21205;-88
2021/09/02 04:25:20;;;;;;;13.33;12.30;;;9.50;99.90;;;;;;4993869;28;20622;-88
2021/09/02 04:27:47;;;;;;;13.20;12.00;;;9.50;99.90;;;;;;4987297;28;20631;-89
2021/09/02 04:30:14;;;;;;;14.27;13.07;;;9.50;99.90;;;;;;5000307;28;20666;-89
2021/09/02 04:32:43;;;;;;;13.43;12.33;;;9.40;99.90;;;;;;4996430;28;20638;-88
2021/09/02 04:35:11;;;;;;;14.47;13.27;;;9.50;99.90;;;;;;4995077;28;20960;-88
2021/09/02 04:37:38;;;;;;;13.37;12.17;;;9.50;99.90;;;;;;4999528;28;21246;-89
2021/09/02 04:40:08;;;;;;;13.40;12.20;;;9.40;99.90;;;;;;4993881;28;20652;-88
2021/09/02 04:42:35;;;;;;;12.80;11.70;;;9.40;99.90;;;;;;4996075;28;20624;-89
2021/09/02 04:45:02;;;;;;;13.47;12.30;;;9.40;99.90;;;;;;4997496;28;20629;-89
2021/09/02 04:47:29;;;;;;;13.10;12.10;;;9.40;99.90;;;;;;4997796;28;20624;-89
2021/09/02 04:49:57;;;;;;;13.63;12.43;;;9.50;99.90;;;;;;4998023;28;20647;-88
2021/09/02 04:52:24;;;;;;;12.97;11.90;;;9.50;99.90;;;;;;5000574;28;20647;-89
2021/09/02 04:54:51;;;;;;;12.97;11.90;;;9.50;99.90;;;;;;4994001;28;20628;-89
2021/09/02 04:57:20;;;;;;;13.23;11.40;;;9.50;99.90;;;;;;4987280;28;20668;-89
2021/09/02 04:59:47;;;;;;;12.97;11.67;;;9.50;99.90;;;;;;4998197;28;21180;-89
2021/09/02 05:02:13;;;;;;;13.00;11.90;;;9.50;99.90;;;;;;4991890;28;20640;-88
2021/09/02 05:04:40;;;;;;;11.63;10.83;;;9.50;99.90;;;;;;4998299;28;20627;-88
2021/09/02 05:07:09;;;;;;;12.93;11.67;;;9.50;99.90;;;;;;4992493;28;20631;-88
2021/09/02 05:09:37;;;;;;;12.93;11.83;;;9.60;99.90;;;;;;4975025;28;20658;-89
2021/09/02 05:12:05;;;;;;;13.87;12.57;;;9.60;99.90;;;;;;4991869;28;20641;-88
2021/09/02 05:14:32;;;;;;;14.00;12.80;;;9.60;99.90;;;;;;4995067;28;20640;-88
2021/09/02 05:16:59;;;;;;;12.63;11.13;;;9.60;99.90;;;;;;4990364;28;20675;-88
2021/09/02 05:19:26;;;;;;;13.60;12.43;;;9.60;99.90;;;;;;4993488;28;20981;-89
2021/09/02 05:21:52;;;;;;;13.53;12.33;;;9.60;99.90;;;;;;5002856;28;20966;-87
2021/09/02 05:24:20;;;;;;;12.20;11.20;;;9.70;99.90;;;;;;4990921;28;20627;-88
2021/09/02 05:26:47;;;;;;;14.27;12.50;;;9.70;99.90;;;;;;4994659;28;20629;-88
2021/09/02 05:29:14;;;;;;;15.30;12.90;;;9.70;99.90;;;;;;4990884;28;20631;-88
2021/09/02 05:31:41;;;;;;;12.93;11.80;;;9.70;99.90;;;;;;4989195;28;20660;-88
2021/09/02 05:34:08;;;;;;;13.87;12.70;;;9.80;99.90;;;;;;4999219;28;20651;-87
2021/09/02 05:36:34;;;;;;;13.47;12.30;;;9.80;99.90;;;;;;4993636;28;20673;-88
2021/09/02 05:39:02;;;;;;;13.83;12.73;;;9.90;99.90;;;;;;4988223;28;20624;-88
2021/09/02 05:41:31;;;;;;;13.80;12.73;;;10.10;99.90;;;;;;4992674;28;20672;-87
2021/09/02 05:43:58;;;;;;;13.03;11.80;;;10.20;99.90;;;;;;4992054;28;20682;-88
2021/09/02 05:46:25;;;;;;;13.90;12.90;;;10.20;99.90;;;;;;4995630;28;20974;-88
2021/09/02 05:48:52;;;;;;;13.70;12.40;;;10.20;99.90;;;;;;4990573;28;20748;-88
2021/09/02 05:51:19;;;;;;;13.07;12.13;;;10.30;99.90;;;;;;4992837;28;20915;-88
2021/09/02 05:53:46;;;;;;;14.20;12.83;;;10.30;99.90;;;;;;4993457;28;20632;-89
2021/09/02 05:56:13;;;;;;;14.40;13.00;;;10.40;99.90;;;;;;4992842;28;20671;-89
2021/09/02 05:58:41;;;;;;;12.93;11.80;;;10.40;99.90;;;;;;4993471;28;20645;-88
2021/09/02 06:01:08;;;;;;;12.20;11.10;;;10.50;99.90;;;;;;4992882;28;20819;-88
2021/09/02 06:03:35;;;;;;;12.27;11.33;;;10.50;99.90;;;;;;4996618;28;20622;-87
2021/09/02 06:06:01;;;;;;;16.20;12.60;;;10.50;99.90;;;;;;4993065;28;20620;-88
2021/09/02 06:08:29;;;;;;;12.87;11.63;;;10.60;99.90;;;;;;4978880;28;20624;-87
2021/09/02 06:10:55;;;;;;;10.93;9.93;;;10.70;99.90;;;;;;4996349;28;20789;-88
2021/09/02 06:13:22;;;;;;;10.57;9.57;;;10.80;99.90;;;;;;4999469;28;20627;-88
2021/09/02 06:15:51;;;;;;;11.90;10.90;;;10.90;99.90;;;;;;4994816;28;20668;-88
2021/09/02 06:18:18;;;;;;;13.13;12.00;;;10.90;99.90;;;;;;4988209;28;20627;-88
2021/09/02 06:20:45;;;;;;;12.00;10.93;;;11.00;99.90;;;;;;4989673;28;20669;-89
2021/09/02 06:23:11;;;;;;;13.97;12.87;;;11.00;99.90;;;;;;4995772;28;20632;-88
2021/09/02 06:25:38;;;;;;;14.70;13.50;;;11.10;99.90;;;;;;4995340;28;20632;-88
2021/09/02 06:28:05;;;;;;;16.90;15.50;;;11.30;99.90;;;;;;4994528;28;20634;-88
2021/09/02 06:30:32;;;;;;;16.97;15.57;;;11.40;99.90;;;;;;4993418;28;20671;-88
2021/09/02 06:33:01;;;;;;;16.93;15.53;;;11.50;99.90;;;;;;4986645;28;20638;-89
2021/09/02 06:35:28;;;;;;;15.90;14.53;;;11.50;99.90;;;;;;4991316;28;21169;-89
2021/09/02 06:37:54;;;;;;;15.87;14.37;;;11.70;99.90;;;;;;4988631;28;20660;-88
2021/09/02 06:40:21;;;;;;;13.30;12.30;;;11.70;99.90;;;;;;4997521;28;21213;-90
2021/09/02 06:42:48;;;;;;;13.00;12.00;;;11.80;99.90;;;;;;4998966;28;20637;-89
2021/09/02 06:45:15;;;;;;;15.10;13.90;;;11.80;99.90;;;;;;4990142;28;20640;-89
2021/09/02 06:47:42;;;;;;;15.90;14.70;;;11.90;99.90;;;;;;4989897;28;21281;-90
2021/09/02 06:50:12;;;;;;;15.23;13.93;;;12.00;99.90;;;;;;4993009;28;21009;-89
2021/09/02 06:52:39;;;;;;;15.60;14.30;;;12.10;99.90;;;;;;4989372;28;20673;-88
2021/09/02 06:55:08;;;;;;;17.40;15.90;;;12.30;99.90;;;;;;4991907;28;20640;-90
2021/09/02 06:57:34;;;;;;;15.70;14.40;;;12.30;99.90;;;;;;4993931;28;20704;-89
2021/09/02 07:00:01;;;;;;;16.03;14.53;;;12.40;99.90;;;;;;4994928;28;20663;-89
2021/09/02 07:02:28;;;;;;;13.90;12.80;;;12.60;99.90;;;;;;4991085;28;20643;-88
2021/09/02 07:04:55;;;;;;;13.67;12.60;;;12.90;99.90;;;;;;4994797;28;21209;-89
2021/09/02 07:07:23;;;;;;;13.87;12.67;;;12.90;99.90;;;;;;4988876;28;20628;-89
2021/09/02 07:09:50;;;;;;;12.80;11.70;;;13.10;99.90;;;;;;4992063;28;20657;-88
2021/09/02 07:12:17;;;;;;;13.50;12.40;;;13.30;99.90;;;;;;4982813;28;20720;-89
2021/09/02 07:14:44;;;;;;;14.17;11.83;;;13.50;99.90;;;;;;4989025;28;20629;-88
2021/09/02 07:17:10;;;;;;;12.40;11.40;;;13.70;99.90;;;;;;5000020;28;20659;-89
2021/09/02 07:19:37;;;;;;;13.30;12.10;;;13.80;99.90;;;;;;4984739;28;20661;-89
2021/09/02 07:22:04;;;;;;;13.77;12.50;;;13.80;99.90;;;;;;4989915;28;21147;-90
2021/09/02 07:24:33;;;;;;;12.93;11.73;;;14.00;99.90;;;;;;4987183;28;20635;-90
2021/09/02 07:27:00;;;;;;;11.87;11.00;;;14.20;99.90;;;;;;4987498;28;20686;-90
2021/09/02 07:29:26;;;;;;;12.00;11.00;;;14.30;99.90;;;;;;4987602;28;20632;-90
2021/09/02 07:31:53;;;;;;;11.23;10.13;;;14.40;99.90;;;;;;4988797;28;20646;-90
2021/09/02 07:34:20;;;;;;;12.87;11.77;;;14.50;99.90;;;;;;4989242;28;20627;-91
2021/09/02 07:36:47;;;;;;;10.67;9.77;;;14.80;99.90;;;;;;4993263;28;20665;-88
2021/09/02 07:39:14;;;;;;;11.77;10.67;;;14.90;99.90;;;;;;4992267;28;20635;-90
2021/09/02 07:41:43;;;;;;;10.73;9.93;;;14.90;99.90;;;;;;4993506;28;20668;-89
2021/09/02 07:44:10;;;;;;;10.77;9.77;;;14.90;99.90;;;;;;4996753;28;20626;-89
2021/09/02 07:46:37;;;;;;;11.70;10.70;;;15.10;99.90;;;;;;4989258;28;20862;-90
2021/09/02 07:49:04;;;;;;;9.60;8.70;;;15.20;99.90;;;;;;4988156;28;21053;-90
2021/09/02 07:51:31;;;;;;;9.60;8.80;;;15.30;99.90;;;;;;4988366;28;20665;-90
2021/09/02 07:53:57;;;;;;;10.37;9.37;;;15.50;99.90;;;;;;4989737;28;20628;-90
2021/09/02 07:56:24;;;;;;;9.33;8.43;;;15.70;99.90;;;;;;4989098;28;20671;-90
2021/09/02 07:58:52;;;;;;;9.03;8.23;;;16.00;99.90;;;;;;4988702;28;20632;-90
2021/09/02 08:01:22;;;;;;;9.40;8.70;;;16.10;99.90;;;;;;4992258;28;20659;-90
2021/09/02 08:03:50;;;;;;;9.47;8.67;;;16.20;99.90;;;;;;4995425;28;20639;-88
2021/09/02 08:06:17;;;;;;;10.20;9.20;;;16.30;99.90;;;;;;4981992;28;21056;-88
2021/09/02 08:08:43;;;;;;;8.80;7.77;;;16.50;99.90;;;;;;4989866;28;20637;-88
2021/09/02 08:11:10;;;;;;;9.20;8.50;;;16.50;99.90;;;;;;4989536;28;20645;-90
2021/09/02 08:13:37;;;;;;;9.13;8.20;;;16.50;99.90;;;;;;4989900;28;20632;-90
2021/09/02 08:16:06;;;;;;;11.80;7.70;;;16.70;99.90;;;;;;4995882;28;20616;-89
2021/09/02 08:18:32;;;;;;;8.77;7.87;;;16.80;99.90;;;;;;4989031;28;20640;-90
2021/09/02 08:21:00;;;;;;;8.30;7.60;;;17.10;99.90;;;;;;4990443;28;20645;-90
2021/09/02 08:23:27;;;;;;;9.07;8.00;;;17.10;99.90;;;;;;4997083;28;20617;-90
2021/09/02 08:25:53;;;;;;;10.30;9.37;;;17.30;99.90;;;;;;4995895;28;20628;-89
2021/09/02 08:28:20;;;;;;;9.93;8.20;;;17.40;99.90;;;;;;4994362;28;20635;-89
2021/09/02 08:30:48;;;;;;;9.53;8.40;;;17.60;99.90;;;;;;4991376;28;20659;-89
2021/09/02 08:33:17;;;;;;;8.70;7.97;;;17.70;99.90;;;;;;4998123;28;20723;-89
2021/09/02 08:35:44;;;;;;;8.50;7.67;;;18.00;99.90;;;;;;4990514;28;20637;-91
2021/09/02 08:38:11;;;;;;;8.23;7.43;;;18.20;99.90;;;;;;4988452;28;20692;-88
2021/09/02 08:40:41;;;;;;;9.80;8.30;;;18.40;99.90;;;;;;4994015;28;21184;-90
2021/09/02 08:43:08;;;;;;;8.43;6.30;;;18.60;99.90;;;;;;4998284;28;20628;-89
2021/09/02 08:45:35;;;;;;;7.80;6.97;;;18.60;99.90;;;;;;4990081;28;20630;-88
2021/09/02 08:48:03;;;;;;;7.67;6.70;;;18.90;99.90;;;;;;4994304;28;20620;-90
2021/09/02 08:50:34;;;;;;;7.73;6.90;;;18.80;99.90;;;;;;4992226;28;20982;-90
2021/09/02 08:53:02;;;;;;;8.07;7.27;;;19.00;99.90;;;;;;4995403;28;21329;-90
2021/09/02 08:55:29;;;;;;;7.70;6.93;;;19.30;99.90;;;;;;4994452;28;20628;-89
2021/09/02 08:57:56;;;;;;;7.57;6.50;;;19.50;99.90;;;;;;4989968;28;20668;-90
2021/09/02 09:00:25;;;;;;;7.93;7.17;;;19.60;99.90;;;;;;4991652;28;20658;-90
2021/09/02 09:02:59;;;;;;;8.33;7.63;;;19.80;99.90;;;;;;4995889;28;20672;-90
2021/09/02 09:05:27;;;;;;;7.10;6.40;;;19.90;99.90;;;;;;4990672;28;20635;-88
2021/09/02 09:07:56;;;;;;;8.60;6.60;;;20.00;99.90;;;;;;4991635;28;20632;-88
2021/09/02 09:10:24;;;;;;;7.30;6.60;;;19.90;99.90;;;;;;4994051;28;20659;-90
2021/09/02 09:12:54;;;;;;;9.40;6.50;;;19.90;99.90;;;;;;5002124;28;20643;-89
2021/09/02 09:15:22;;;;;;;7.93;7.20;;;20.00;99.90;;;;;;4994548;28;20628;-89
2021/09/02 09:17:51;;;;;;;7.93;7.13;;;20.30;99.90;;;;;;4994364;28;20673;-90
2021/09/02 09:20:19;;;;;;;7.87;6.53;;;20.30;99.90;;;;;;4994872;28;21069;-89
2021/09/02 09:22:50;;;;;;;6.67;6.17;;;20.40;99.90;;;;;;4992179;28;20636;-90
2021/09/02 09:25:18;;;;;;;6.90;6.20;;;20.40;99.90;;;;;;4978584;28;20731;-90
2021/09/02 09:27:50;;;;;;;6.30;5.80;;;20.80;99.90;;;;;;4990239;28;20707;-88
2021/09/02 09:30:19;;;;;;;6.23;5.40;;;20.60;99.90;;;;;;4995338;28;21186;-90
2021/09/02 09:32:49;;;;;;;6.00;5.50;;;20.70;99.90;;;;;;4995737;28;21211;-89
2021/09/02 09:35:18;;;;;;;6.43;5.90;;;20.90;99.90;;;;;;4982492;28;20632;-89
2021/09/02 09:37:46;;;;;;;6.87;6.27;;;21.00;99.90;;;;;;4994479;28;21033;-90
2021/09/02 09:40:23;;;;;;;7.13;5.50;;;20.60;99.90;;;;;;4990787;28;20661;-90
2021/09/02 09:43:08;;;;;;;6.20;5.70;;;21.00;99.90;;;;;;4993705;28;20647;-89
2021/09/02 09:45:46;;;;;;;6.70;6.00;;;21.50;99.90;;;;;;4987764;28;20762;-89
2021/09/02 09:48:34;;;;;;;6.13;5.40;;;21.50;99.90;;;;;;4994915;28;20621;-90
2021/09/02 09:51:11;;;;;;;8.40;5.90;;;21.70;99.90;;;;;;4992792;28;20667;-90
2021/09/02 09:53:40;;;;;;;5.83;5.30;;;22.00;99.90;;;;;;4989095;28;20636;-89
2021/09/02 09:56:08;;;;;;;5.77;5.27;;;22.10;99.90;;;;;;4993264;28;21477;-90
2021/09/02 09:58:36;;;;;;;5.57;5.07;;;22.20;99.90;;;;;;4988991;28;20655;-89
2021/09/02 10:01:05;;;;;;;5.70;5.30;;;21.80;99.90;;;;;;4997274;28;20698;-90
2021/09/02 10:03:33;;;;;;;6.00;5.43;;;21.90;99.90;;;;;;4990417;28;21040;-90
2021/09/02 10:06:04;;;;;;;7.10;5.57;;;22.10;99.90;;;;;;4999982;28;20636;-90
2021/09/02 10:08:36;;;;;;;5.77;5.27;;;22.60;99.90;;;;;;4992055;28;20696;-90
2021/09/02 10:11:04;;;;;;;5.23;4.73;;;22.40;99.90;;;;;;4992518;28;20670;-88
2021/09/02 10:13:33;;;;;;;5.63;5.00;;;22.10;99.90;;;;;;4992352;28;20635;-88
2021/09/02 10:16:01;;;;;;;6.00;5.50;;;22.40;99.90;;;;;;4996589;28;20626;-90
2021/09/02 10:18:31;;;;;;;5.63;5.13;;;22.80;99.90;;;;;;4993831;28;20656;-88
2021/09/02 10:21:02;;;;;;;8.80;5.07;;;22.90;99.90;;;;;;4988911;28;20651;-89
2021/09/02 10:23:29;;;;;;;6.50;6.00;;;23.40;99.90;;;;;;5000445;28;21165;-89
2021/09/02 10:25:56;;;;;;;6.90;6.20;;;23.60;99.90;;;;;;4996797;28;20631;-91
2021/09/02 10:28:26;;;;;;;6.77;6.27;;;23.80;99.90;;;;;;4992852;28;21230;-89
2021/09/02 10:30:56;;;;;;;6.83;6.23;;;24.00;99.90;;;;;;4991488;28;20668;-89
2021/09/02 10:33:32;;;;;;;5.90;5.40;;;23.80;99.90;;;;;;4984580;28;20975;-88
2021/09/02 10:36:00;;;;;;;5.77;5.27;;;24.30;99.90;;;;;;4996706;28;20631;-89
2021/09/02 10:38:39;;;;;;;5.80;5.30;;;24.30;99.80;;;;;;4995540;28;20722;-88
2021/09/02 10:41:07;;;;;;;6.23;5.73;;;24.00;99.90;;;;;;4991206;28;20651;-89
2021/09/02 10:43:50;;;;;;;6.00;5.40;;;24.00;97.50;;;;;;4995515;28;20613;-88
2021/09/02 10:46:35;;;;;;;5.77;4.80;;;24.10;96.80;;;;;;4994949;28;20639;-88
2021/09/02 10:49:20;;;;;;;5.90;5.30;;;24.10;97.30;;;;;;4993025;28;21005;-90
2021/09/02 10:51:48;;;;;;;7.40;5.60;;;24.00;99.80;;;;;;4991719;28;20632;-89
2021/09/02 10:54:19;;;;;;;5.23;4.63;;;24.40;99.90;;;;;;4986094;28;21160;-89
2021/09/02 10:57:01;;;;;;;5.80;5.20;;;24.90;94.90;;;;;;4990740;28;20724;-89
2021/09/02 10:59:55;;;;;;;5.30;4.90;;;25.10;95.50;;;;;;4987179;28;20652;-88
2021/09/02 11:02:44;;;;;;;5.33;4.93;;;25.00;95.20;;;;;;4996627;28;20614;-89
2021/09/02 11:05:16;;;;;;;5.57;4.30;;;25.30;92.50;;;;;;4990623;28;20646;-89
2021/09/02 11:07:45;;;;;;;5.27;4.77;;;25.40;94.40;;;;;;4988337;28;20621;-89
2021/09/02 11:10:18;;;;;;;4.93;4.53;;;25.50;91.50;;;;;;4990999;28;20747;-89
2021/09/02 11:12:46;;;;;;;5.80;5.30;;;25.30;91.60;;;;;;4994471;28;20624;-90
2021/09/02 11:15:22;;;;;;;5.23;4.67;;;25.50;90.60;;;;;;4972326;28;20734;-91
2021/09/02 11:18:07;;;;;;;4.83;4.50;;;25.10;91.20;;;;;;4992753;28;20668;-88
2021/09/02 11:20:35;;;;;;;9.33;5.53;;;25.40;91.30;;;;;;4986412;28;20647;-88
2021/09/02 11:23:11;;;;;;;6.83;4.80;;;25.10;90.30;;;;;;4990868;28;20631;-89
2021/09/02 11:25:43;;;;;;;4.20;3.80;;;25.20;91.90;;;;;;4991302;28;20637;-89
2021/09/02 11:28:10;;;;;;;4.33;3.93;;;25.70;90.20;;;;;;5001144;28;20635;-89
2021/09/02 11:30:38;;;;;;;4.70;4.30;;;25.70;88.00;;;;;;5003307;28;20659;-89
2021/09/02 11:33:07;;;;;;;5.33;4.77;;;26.40;90.00;;;;;;4999012;28;20628;-88
2021/09/02 11:35:34;;;;;;;5.10;4.60;;;26.10;89.90;;;;;;4990886;28;21174;-89
2021/09/02 11:38:01;;;;;;;4.97;4.47;;;26.50;85.70;;;;;;4994749;28;21209;-93
2021/09/02 11:40:32;;;;;;;5.07;4.60;;;26.40;87.70;;;;;;4989308;28;20668;-93
2021/09/02 11:43:00;;;;;;;4.70;4.30;;;26.50;86.60;;;;;;4995294;28;20754;-95
2021/09/02 11:45:29;;;;;;;5.80;5.17;;;26.90;82.50;;;;;;4993131;28;20639;-89
2021/09/02 11:47:57;;;;;;;5.00;4.60;;;26.50;86.40;;;;;;4998978;28;20624;-90
2021/09/02 11:50:25;;;;;;;5.03;4.53;;;26.70;85.70;;;;;;5001661;28;20650;-90
2021/09/02 11:52:53;;;;;;;5.50;4.30;;;27.00;84.90;;;;;;5004802;28;20641;-90
2021/09/02 11:55:29;;;;;;;5.07;4.67;;;27.10;81.40;;;;;;4999894;28;20609;-90
2021/09/02 11:57:57;;;;;;;4.83;4.43;;;27.60;83.40;;;;;;4991626;28;20679;-89
2021/09/02 12:00:24;;;;;;;5.10;4.70;;;27.80;79.30;;;;;;4993042;28;20655;-90
2021/09/02 12:02:53;;;;;;;5.70;5.10;;;28.00;82.10;;;;;;4992607;28;21127;-89
2021/09/02 12:05:21;;;;;;;4.90;4.50;;;28.10;77.60;;;;;;4995538;28;20632;-91
2021/09/02 12:07:55;;;;;;;5.30;4.47;;;27.80;79.80;;;;;;4990069;28;20652;-90
2021/09/02 12:10:23;;;;;;;5.00;4.60;;;28.00;80.70;;;;;;5002179;28;20694;-91
2021/09/02 12:12:50;;;;;;;5.00;4.10;;;28.90;73.40;;;;;;5005717;28;20638;-91
2021/09/02 12:15:26;;;;;;;5.10;4.70;;;28.70;73.30;;;;;;4999701;28;20616;-90
2021/09/02 12:18:07;;;;;;;5.67;4.43;;;28.50;71.50;;;;;;4998786;28;20668;-90
2021/09/02 12:20:34;;;;;;;4.77;4.47;;;28.00;71.20;;;;;;4990574;28;20671;-90
2021/09/02 12:23:18;;;;;;;4.87;4.57;;;28.20;71.00;;;;;;4993323;28;21002;-91
2021/09/02 12:26:03;;;;;;;4.43;4.13;;;28.10;73.10;;;;;;4992395;28;20638;-92
2021/09/02 12:28:36;;;;;;;4.63;4.33;;;28.00;70.70;;;;;;4988916;28;21205;-91
2021/09/02 12:31:17;;;;;;;5.37;4.87;;;28.80;71.70;;;;;;4992830;28;21044;-91
2021/09/02 12:34:05;;;;;;;5.40;4.90;;;28.60;73.40;;;;;;4985968;28;20628;-90
2021/09/02 12:36:34;;;;;;;5.07;4.67;;;28.40;71.60;;;;;;4988074;28;20988;-90
2021/09/02 12:39:16;;;;;;;4.60;4.30;;;28.80;68.90;;;;;;4995629;28;20667;-91
2021/09/02 12:41:45;;;;;;;5.00;4.60;;;28.90;71.30;;;;;;4987959;28;20696;-90
2021/09/02 12:44:14;;;;;;;5.63;4.90;;;29.20;69.50;;;;;;4994420;28;20636;-90
2021/09/02 12:46:52;;;;;;;6.53;4.53;;;29.00;72.50;;;;;;4992225;28;21179;-90
2021/09/02 12:49:20;;;;;;;4.30;4.00;;;29.40;70.10;;;;;;4991405;28;20628;-91